Terminal Aerodrome Forecast
Issued by NWS

Current Version | Previous Version | Graphics & Text | Print | Product List | Glossary On
Versions: 1 2 3 4 5 6 7 8 9 10 11 12 13 14 15 16 17 18 19 20
000
FTUS41 KRNK 190925 AAC
TAFLWB
TAF AMD
KLWB 190925Z 1909/2006 32006KT P6SM OVC028
      TEMPO 1909/1911 32008G18KT 4SM -SHRA OVC018
     FM191100 28015G30KT P6SM VCSH OVC030
     FM191900 31012G22KT P6SM OVC040
     FM200000 32010G18KT P6SM BKN050=

USA.gov is the U.S. government's official web portal to all federal, state and local government web resources and services.